sensor_id;sensor_type;location;lat;lon;timestamp;temperature;humidity
13332;DHT22;6735;51.456;12.626;2023-03-21T00:01:04;8.80;86.10
13332;DHT22;6735;51.456;12.626;2023-03-21T00:03:31;8.80;86.20
13332;DHT22;6735;51.456;12.626;2023-03-21T00:05:58;8.80;86.20
13332;DHT22;6735;51.456;12.626;2023-03-21T00:08:24;8.80;86.20
13332;DHT22;6735;51.456;12.626;2023-03-21T00:11:01;8.80;86.20
13332;DHT22;6735;51.456;12.626;2023-03-21T00:13:28;8.80;86.10
13332;DHT22;6735;51.456;12.626;2023-03-21T00:15:58;8.80;86.20
13332;DHT22;6735;51.456;12.626;2023-03-21T00:18:27;8.80;86.30
13332;DHT22;6735;51.456;12.626;2023-03-21T00:21:00;8.80;86.20
13332;DHT22;6735;51.456;12.626;2023-03-21T00:23:28;8.80;86.20
13332;DHT22;6735;51.456;12.626;2023-03-21T00:25:54;8.90;86.20
13332;DHT22;6735;51.456;12.626;2023-03-21T00:28:20;8.80;86.20
13332;DHT22;6735;51.456;12.626;2023-03-21T00:30:46;8.80;86.20
13332;DHT22;6735;51.456;12.626;2023-03-21T00:33:11;8.80;86.20
13332;DHT22;6735;51.456;12.626;2023-03-21T00:35:38;8.90;86.30
13332;DHT22;6735;51.456;12.626;2023-03-21T00:38:07;8.80;86.20
13332;DHT22;6735;51.456;12.626;2023-03-21T00:40:33;8.90;86.30
13332;DHT22;6735;51.456;12.626;2023-03-21T00:42:58;8.80;86.20
13332;DHT22;6735;51.456;12.626;2023-03-21T00:45:24;8.80;86.10
13332;DHT22;6735;51.456;12.626;2023-03-21T00:47:49;8.90;86.00
13332;DHT22;6735;51.456;12.626;2023-03-21T00:50:15;8.90;85.80
13332;DHT22;6735;51.456;12.626;2023-03-21T00:52:40;8.80;85.40
13332;DHT22;6735;51.456;12.626;2023-03-21T00:55:08;8.80;85.20
13332;DHT22;6735;51.456;12.626;2023-03-21T00:57:35;8.90;85.00
13332;DHT22;6735;51.456;12.626;2023-03-21T01:00:00;8.90;84.50
13332;DHT22;6735;51.456;12.626;2023-03-21T01:02:26;8.90;84.60
13332;DHT22;6735;51.456;12.626;2023-03-21T01:04:52;8.90;84.30
13332;DHT22;6735;51.456;12.626;2023-03-21T01:07:18;8.90;84.20
13332;DHT22;6735;51.456;12.626;2023-03-21T01:09:44;8.90;83.90
13332;DHT22;6735;51.456;12.626;2023-03-21T01:12:10;8.90;83.90
13332;DHT22;6735;51.456;12.626;2023-03-21T01:14:35;8.80;83.70
13332;DHT22;6735;51.456;12.626;2023-03-21T01:17:01;8.80;83.60
13332;DHT22;6735;51.456;12.626;2023-03-21T01:19:26;8.80;83.60
13332;DHT22;6735;51.456;12.626;2023-03-21T01:21:52;8.80;83.80
13332;DHT22;6735;51.456;12.626;2023-03-21T01:24:18;8.80;83.90
13332;DHT22;6735;51.456;12.626;2023-03-21T01:26:44;8.80;83.70
13332;DHT22;6735;51.456;12.626;2023-03-21T01:29:09;8.80;83.90
13332;DHT22;6735;51.456;12.626;2023-03-21T01:31:35;8.80;84.00
13332;DHT22;6735;51.456;12.626;2023-03-21T01:34:01;8.80;84.00
13332;DHT22;6735;51.456;12.626;2023-03-21T01:36:26;8.80;84.10
13332;DHT22;6735;51.456;12.626;2023-03-21T01:38:53;8.80;84.20
13332;DHT22;6735;51.456;12.626;2023-03-21T01:41:30;8.80;84.30
13332;DHT22;6735;51.456;12.626;2023-03-21T01:43:56;8.80;84.30
13332;DHT22;6735;51.456;12.626;2023-03-21T01:46:34;8.80;84.40
13332;DHT22;6735;51.456;12.626;2023-03-21T01:51:36;8.80;84.60
13332;DHT22;6735;51.456;12.626;2023-03-21T01:54:04;8.80;84.80
13332;DHT22;6735;51.456;12.626;2023-03-21T01:56:37;8.80;84.70
13332;DHT22;6735;51.456;12.626;2023-03-21T01:59:16;8.80;84.70
13332;DHT22;6735;51.456;12.626;2023-03-21T02:01:46;8.70;84.70
13332;DHT22;6735;51.456;12.626;2023-03-21T02:04:12;8.70;84.80
13332;DHT22;6735;51.456;12.626;2023-03-21T02:06:58;8.80;84.90
13332;DHT22;6735;51.456;12.626;2023-03-21T02:09:28;8.70;84.80
13332;DHT22;6735;51.456;12.626;2023-03-21T02:11:55;8.70;84.90
13332;DHT22;6735;51.456;12.626;2023-03-21T02:14:21;8.70;85.20
13332;DHT22;6735;51.456;12.626;2023-03-21T02:19:28;8.70;85.30
13332;DHT22;6735;51.456;12.626;2023-03-21T02:22:19;8.70;85.40
13332;DHT22;6735;51.456;12.626;2023-03-21T02:27:22;8.70;85.60
13332;DHT22;6735;51.456;12.626;2023-03-21T02:30:02;8.70;85.70
13332;DHT22;6735;51.456;12.626;2023-03-21T02:33:10;8.70;85.70
13332;DHT22;6735;51.456;12.626;2023-03-21T02:38:46;8.60;86.10
13332;DHT22;6735;51.456;12.626;2023-03-21T02:41:28;8.60;86.30
13332;DHT22;6735;51.456;12.626;2023-03-21T02:43:57;8.60;86.40
13332;DHT22;6735;51.456;12.626;2023-03-21T02:49:25;8.60;86.40
13332;DHT22;6735;51.456;12.626;2023-03-21T02:51:55;8.60;86.50
13332;DHT22;6735;51.456;12.626;2023-03-21T02:54:23;8.60;86.60
13332;DHT22;6735;51.456;12.626;2023-03-21T02:56:51;8.60;86.60
13332;DHT22;6735;51.456;12.626;2023-03-21T02:59:19;8.50;86.60
13332;DHT22;6735;51.456;12.626;2023-03-21T03:01:45;8.50;86.60
13332;DHT22;6735;51.456;12.626;2023-03-21T03:04:18;8.50;86.80
13332;DHT22;6735;51.456;12.626;2023-03-21T03:13:07;8.50;86.70
13332;DHT22;6735;51.456;12.626;2023-03-21T03:16:06;8.50;86.80
13332;DHT22;6735;51.456;12.626;2023-03-21T03:18:55;8.50;86.70
13332;DHT22;6735;51.456;12.626;2023-03-21T03:21:31;8.40;86.90
13332;DHT22;6735;51.456;12.626;2023-03-21T03:24:06;8.50;86.90
13332;DHT22;6735;51.456;12.626;2023-03-21T03:26:41;8.50;87.10
13332;DHT22;6735;51.456;12.626;2023-03-21T03:29:11;8.50;87.00
13332;DHT22;6735;51.456;12.626;2023-03-21T03:31:41;8.40;87.10
13332;DHT22;6735;51.456;12.626;2023-03-21T03:34:12;8.40;87.20
13332;DHT22;6735;51.456;12.626;2023-03-21T03:36:42;8.40;87.20
13332;DHT22;6735;51.456;12.626;2023-03-21T03:39:12;8.40;87.20
13332;DHT22;6735;51.456;12.626;2023-03-21T03:41:46;8.40;87.20
13332;DHT22;6735;51.456;12.626;2023-03-21T03:44:12;8.40;87.10
13332;DHT22;6735;51.456;12.626;2023-03-21T03:47:07;8.40;87.30
13332;DHT22;6735;51.456;12.626;2023-03-21T03:49:42;8.40;87.10
13332;DHT22;6735;51.456;12.626;2023-03-21T03:52:12;8.40;87.20
13332;DHT22;6735;51.456;12.626;2023-03-21T03:54:45;8.40;87.30
13332;DHT22;6735;51.456;12.626;2023-03-21T03:57:12;8.40;87.30
13332;DHT22;6735;51.456;12.626;2023-03-21T03:59:39;8.40;87.40
13332;DHT22;6735;51.456;12.626;2023-03-21T04:02:05;8.40;87.40
13332;DHT22;6735;51.456;12.626;2023-03-21T04:04:30;8.40;87.40
13332;DHT22;6735;51.456;12.626;2023-03-21T04:06:56;8.40;87.30
13332;DHT22;6735;51.456;12.626;2023-03-21T04:09:22;8.40;87.30
13332;DHT22;6735;51.456;12.626;2023-03-21T04:11:48;8.40;87.30
13332;DHT22;6735;51.456;12.626;2023-03-21T04:14:14;8.40;87.30
13332;DHT22;6735;51.456;12.626;2023-03-21T04:16:39;8.40;87.30
13332;DHT22;6735;51.456;12.626;2023-03-21T04:19:05;8.40;87.30
13332;DHT22;6735;51.456;12.626;2023-03-21T04:21:30;8.40;87.30
13332;DHT22;6735;51.456;12.626;2023-03-21T04:23:56;8.30;87.20
13332;DHT22;6735;51.456;12.626;2023-03-21T04:26:22;8.30;87.30
13332;DHT22;6735;51.456;12.626;2023-03-21T04:28:49;8.30;87.40
13332;DHT22;6735;51.456;12.626;2023-03-21T04:31:15;8.30;87.50
13332;DHT22;6735;51.456;12.626;2023-03-21T04:33:42;8.30;87.50
13332;DHT22;6735;51.456;12.626;2023-03-21T04:36:09;8.30;87.50
13332;DHT22;6735;51.456;12.626;2023-03-21T04:38:51;8.30;87.50
13332;DHT22;6735;51.456;12.626;2023-03-21T04:41:17;8.20;87.50
13332;DHT22;6735;51.456;12.626;2023-03-21T04:43:43;8.20;87.50
13332;DHT22;6735;51.456;12.626;2023-03-21T04:46:09;8.20;87.40
13332;DHT22;6735;51.456;12.626;2023-03-21T04:48:35;8.20;87.50
13332;DHT22;6735;51.456;12.626;2023-03-21T04:51:00;8.20;87.50
13332;DHT22;6735;51.456;12.626;2023-03-21T04:53:26;8.20;87.60
13332;DHT22;6735;51.456;12.626;2023-03-21T04:55:51;8.20;87.50
13332;DHT22;6735;51.456;12.626;2023-03-21T04:58:17;8.20;87.50
13332;DHT22;6735;51.456;12.626;2023-03-21T05:00:45;8.20;87.60
13332;DHT22;6735;51.456;12.626;2023-03-21T05:03:10;8.20;87.50
13332;DHT22;6735;51.456;12.626;2023-03-21T05:05:40;8.20;87.50
13332;DHT22;6735;51.456;12.626;2023-03-21T05:08:05;8.20;87.50
13332;DHT22;6735;51.456;12.626;2023-03-21T05:10:31;8.20;87.60
13332;DHT22;6735;51.456;12.626;2023-03-21T05:12:57;8.20;87.60
13332;DHT22;6735;51.456;12.626;2023-03-21T05:15:22;8.20;87.60
13332;DHT22;6735;51.456;12.626;2023-03-21T05:17:48;8.20;87.60
13332;DHT22;6735;51.456;12.626;2023-03-21T05:20:14;8.20;87.60
13332;DHT22;6735;51.456;12.626;2023-03-21T05:22:41;8.20;87.60
13332;DHT22;6735;51.456;12.626;2023-03-21T05:25:08;8.20;87.60
13332;DHT22;6735;51.456;12.626;2023-03-21T05:27:35;8.30;87.60
13332;DHT22;6735;51.456;12.626;2023-03-21T05:30:06;8.30;87.60
13332;DHT22;6735;51.456;12.626;2023-03-21T05:32:32;8.30;87.60
13332;DHT22;6735;51.456;12.626;2023-03-21T05:34:58;8.30;87.60
13332;DHT22;6735;51.456;12.626;2023-03-21T05:37:24;8.30;87.60
13332;DHT22;6735;51.456;12.626;2023-03-21T05:39:50;8.30;87.60
13332;DHT22;6735;51.456;12.626;2023-03-21T05:42:15;8.40;87.60
13332;DHT22;6735;51.456;12.626;2023-03-21T05:44:43;8.40;87.60
13332;DHT22;6735;51.456;12.626;2023-03-21T05:47:09;8.40;87.60
13332;DHT22;6735;51.456;12.626;2023-03-21T05:49:35;8.40;87.50
13332;DHT22;6735;51.456;12.626;2023-03-21T05:52:00;8.50;87.50
13332;DHT22;6735;51.456;12.626;2023-03-21T05:54:26;8.50;87.50
13332;DHT22;6735;51.456;12.626;2023-03-21T05:56:51;8.50;87.40
13332;DHT22;6735;51.456;12.626;2023-03-21T05:59:17;8.50;87.40
13332;DHT22;6735;51.456;12.626;2023-03-21T06:01:42;8.60;87.40
13332;DHT22;6735;51.456;12.626;2023-03-21T06:04:08;8.60;87.40
13332;DHT22;6735;51.456;12.626;2023-03-21T06:06:33;8.60;87.30
13332;DHT22;6735;51.456;12.626;2023-03-21T06:08:59;8.60;87.20
13332;DHT22;6735;51.456;12.626;2023-03-21T06:11:33;8.70;87.10
13332;DHT22;6735;51.456;12.626;2023-03-21T06:13:59;8.70;87.10
13332;DHT22;6735;51.456;12.626;2023-03-21T06:16:25;8.80;87.10
13332;DHT22;6735;51.456;12.626;2023-03-21T06:18:50;8.80;86.90
13332;DHT22;6735;51.456;12.626;2023-03-21T06:21:15;8.90;86.90
13332;DHT22;6735;51.456;12.626;2023-03-21T06:23:41;9.00;86.80
13332;DHT22;6735;51.456;12.626;2023-03-21T06:26:07;9.00;86.60
13332;DHT22;6735;51.456;12.626;2023-03-21T06:28:32;9.10;86.50
13332;DHT22;6735;51.456;12.626;2023-03-21T06:30:58;9.10;86.20
13332;DHT22;6735;51.456;12.626;2023-03-21T06:33:24;9.10;86.20
13332;DHT22;6735;51.456;12.626;2023-03-21T06:35:54;9.10;86.20
13332;DHT22;6735;51.456;12.626;2023-03-21T06:38:20;9.10;85.80
13332;DHT22;6735;51.456;12.626;2023-03-21T06:40:46;9.10;85.70
13332;DHT22;6735;51.456;12.626;2023-03-21T06:43:12;9.30;85.80
13332;DHT22;6735;51.456;12.626;2023-03-21T06:45:38;9.30;85.40
13332;DHT22;6735;51.456;12.626;2023-03-21T06:48:04;9.30;85.50
13332;DHT22;6735;51.456;12.626;2023-03-21T06:50:29;9.30;85.20
13332;DHT22;6735;51.456;12.626;2023-03-21T06:52:55;9.40;85.20
13332;DHT22;6735;51.456;12.626;2023-03-21T06:55:22;9.60;85.30
13332;DHT22;6735;51.456;12.626;2023-03-21T06:57:59;9.80;84.90
13332;DHT22;6735;51.456;12.626;2023-03-21T07:00:25;10.00;83.80
13332;DHT22;6735;51.456;12.626;2023-03-21T07:02:51;10.10;83.50
13332;DHT22;6735;51.456;12.626;2023-03-21T07:05:18;10.10;83.50
13332;DHT22;6735;51.456;12.626;2023-03-21T07:07:43;10.20;83.20
13332;DHT22;6735;51.456;12.626;2023-03-21T07:10:09;10.20;83.20
13332;DHT22;6735;51.456;12.626;2023-03-21T07:12:35;10.20;82.60
13332;DHT22;6735;51.456;12.626;2023-03-21T07:15:02;10.10;83.00
13332;DHT22;6735;51.456;12.626;2023-03-21T07:17:29;10.10;83.00
13332;DHT22;6735;51.456;12.626;2023-03-21T07:19:54;10.20;83.20
13332;DHT22;6735;51.456;12.626;2023-03-21T07:22:20;10.10;83.00
13332;DHT22;6735;51.456;12.626;2023-03-21T07:24:45;10.10;83.10
13332;DHT22;6735;51.456;12.626;2023-03-21T07:27:13;10.20;82.90
13332;DHT22;6735;51.456;12.626;2023-03-21T07:29:39;10.30;83.00
13332;DHT22;6735;51.456;12.626;2023-03-21T07:32:05;10.40;83.00
13332;DHT22;6735;51.456;12.626;2023-03-21T07:34:30;10.40;82.50
13332;DHT22;6735;51.456;12.626;2023-03-21T07:36:58;10.50;81.80
13332;DHT22;6735;51.456;12.626;2023-03-21T07:39:24;10.50;81.90
13332;DHT22;6735;51.456;12.626;2023-03-21T07:41:50;10.50;81.40
13332;DHT22;6735;51.456;12.626;2023-03-21T07:44:16;10.40;81.30
13332;DHT22;6735;51.456;12.626;2023-03-21T07:46:41;10.60;81.50
13332;DHT22;6735;51.456;12.626;2023-03-21T07:49:06;10.60;81.40
13332;DHT22;6735;51.456;12.626;2023-03-21T07:51:33;10.70;81.20
13332;DHT22;6735;51.456;12.626;2023-03-21T07:54:00;10.70;80.80
13332;DHT22;6735;51.456;12.626;2023-03-21T07:56:27;10.70;80.40
13332;DHT22;6735;51.456;12.626;2023-03-21T07:58:52;10.80;80.60
13332;DHT22;6735;51.456;12.626;2023-03-21T08:01:18;10.90;80.50
13332;DHT22;6735;51.456;12.626;2023-03-21T08:03:43;11.00;79.80
13332;DHT22;6735;51.456;12.626;2023-03-21T08:06:09;11.10;79.60
13332;DHT22;6735;51.456;12.626;2023-03-21T08:08:35;11.20;78.90
13332;DHT22;6735;51.456;12.626;2023-03-21T08:11:02;11.30;79.40
13332;DHT22;6735;51.456;12.626;2023-03-21T08:13:28;11.30;78.50
13332;DHT22;6735;51.456;12.626;2023-03-21T08:15:54;11.20;77.80
13332;DHT22;6735;51.456;12.626;2023-03-21T08:18:19;11.30;79.00
13332;DHT22;6735;51.456;12.626;2023-03-21T08:20:51;11.40;79.10
13332;DHT22;6735;51.456;12.626;2023-03-21T08:23:17;11.50;79.00
13332;DHT22;6735;51.456;12.626;2023-03-21T08:25:42;11.70;78.40
13332;DHT22;6735;51.456;12.626;2023-03-21T08:28:08;11.90;77.20
13332;DHT22;6735;51.456;12.626;2023-03-21T08:30:33;11.90;76.40
13332;DHT22;6735;51.456;12.626;2023-03-21T08:33:00;11.90;76.80
13332;DHT22;6735;51.456;12.626;2023-03-21T08:35:26;12.00;76.10
13332;DHT22;6735;51.456;12.626;2023-03-21T08:37:52;12.10;76.60
13332;DHT22;6735;51.456;12.626;2023-03-21T08:40:18;12.00;76.00
13332;DHT22;6735;51.456;12.626;2023-03-21T08:42:45;12.10;76.40
13332;DHT22;6735;51.456;12.626;2023-03-21T08:45:13;12.20;75.90
13332;DHT22;6735;51.456;12.626;2023-03-21T08:55:04;12.50;72.80
13332;DHT22;6735;51.456;12.626;2023-03-21T08:57:29;12.70;74.40
13332;DHT22;6735;51.456;12.626;2023-03-21T08:59:55;12.80;73.90
13332;DHT22;6735;51.456;12.626;2023-03-21T09:02:21;12.80;73.20
13332;DHT22;6735;51.456;12.626;2023-03-21T09:04:46;12.60;73.20
13332;DHT22;6735;51.456;12.626;2023-03-21T09:07:12;12.70;73.80
13332;DHT22;6735;51.456;12.626;2023-03-21T09:09:39;12.60;72.60
13332;DHT22;6735;51.456;12.626;2023-03-21T09:12:05;12.70;73.60
13332;DHT22;6735;51.456;12.626;2023-03-21T09:14:31;12.90;73.30
13332;DHT22;6735;51.456;12.626;2023-03-21T09:16:57;12.90;72.70
13332;DHT22;6735;51.456;12.626;2023-03-21T09:19:23;13.00;72.20
13332;DHT22;6735;51.456;12.626;2023-03-21T09:21:48;13.10;71.90
13332;DHT22;6735;51.456;12.626;2023-03-21T09:24:14;13.10;71.70
13332;DHT22;6735;51.456;12.626;2023-03-21T09:26:39;13.10;71.50
13332;DHT22;6735;51.456;12.626;2023-03-21T09:29:05;13.10;71.10
13332;DHT22;6735;51.456;12.626;2023-03-21T09:31:31;13.10;71.90
13332;DHT22;6735;51.456;12.626;2023-03-21T09:33:57;13.20;71.70
13332;DHT22;6735;51.456;12.626;2023-03-21T09:36:23;13.20;72.00
13332;DHT22;6735;51.456;12.626;2023-03-21T09:38:51;13.10;71.30
13332;DHT22;6735;51.456;12.626;2023-03-21T09:41:45;13.20;71.10
13332;DHT22;6735;51.456;12.626;2023-03-21T09:47:28;13.50;70.30
13332;DHT22;6735;51.456;12.626;2023-03-21T09:50:03;13.70;70.40
13332;DHT22;6735;51.456;12.626;2023-03-21T09:52:45;13.80;69.80
13332;DHT22;6735;51.456;12.626;2023-03-21T09:55:18;13.90;68.20
13332;DHT22;6735;51.456;12.626;2023-03-21T09:57:49;14.00;69.20
13332;DHT22;6735;51.456;12.626;2023-03-21T10:00:22;14.20;69.10
13332;DHT22;6735;51.456;12.626;2023-03-21T10:02:51;14.40;68.70
13332;DHT22;6735;51.456;12.626;2023-03-21T10:05:29;14.50;68.00
13332;DHT22;6735;51.456;12.626;2023-03-21T10:08:13;14.70;67.30
13332;DHT22;6735;51.456;12.626;2023-03-21T10:10:46;14.90;65.90
13332;DHT22;6735;51.456;12.626;2023-03-21T10:13:17;14.80;66.10
13332;DHT22;6735;51.456;12.626;2023-03-21T10:15:44;14.70;66.80
13332;DHT22;6735;51.456;12.626;2023-03-21T10:18:15;14.60;66.00
13332;DHT22;6735;51.456;12.626;2023-03-21T10:20:44;14.80;66.20
13332;DHT22;6735;51.456;12.626;2023-03-21T10:23:13;14.80;64.40
13332;DHT22;6735;51.456;12.626;2023-03-21T10:25:41;14.80;66.30
13332;DHT22;6735;51.456;12.626;2023-03-21T10:28:14;14.70;65.80
13332;DHT22;6735;51.456;12.626;2023-03-21T10:30:45;14.60;64.60
13332;DHT22;6735;51.456;12.626;2023-03-21T10:33:14;14.50;65.70
13332;DHT22;6735;51.456;12.626;2023-03-21T10:35:44;14.50;65.30
13332;DHT22;6735;51.456;12.626;2023-03-21T10:38:15;14.50;66.00
13332;DHT22;6735;51.456;12.626;2023-03-21T10:40:42;14.70;66.10
13332;DHT22;6735;51.456;12.626;2023-03-21T10:45:54;14.80;63.60
13332;DHT22;6735;51.456;12.626;2023-03-21T10:48:20;14.80;64.80
13332;DHT22;6735;51.456;12.626;2023-03-21T10:50:48;14.70;65.00
13332;DHT22;6735;51.456;12.626;2023-03-21T10:53:21;14.60;65.30
13332;DHT22;6735;51.456;12.626;2023-03-21T10:55:50;14.80;65.60
13332;DHT22;6735;51.456;12.626;2023-03-21T10:58:19;14.90;65.10
13332;DHT22;6735;51.456;12.626;2023-03-21T11:00:56;15.10;65.00
13332;DHT22;6735;51.456;12.626;2023-03-21T11:06:21;15.30;64.30
13332;DHT22;6735;51.456;12.626;2023-03-21T11:08:55;15.40;63.30
13332;DHT22;6735;51.456;12.626;2023-03-21T11:11:35;15.50;64.70
13332;DHT22;6735;51.456;12.626;2023-03-21T11:14:03;15.40;64.00
13332;DHT22;6735;51.456;12.626;2023-03-21T11:16:42;15.30;64.30
13332;DHT22;6735;51.456;12.626;2023-03-21T11:19:25;15.20;64.50
13332;DHT22;6735;51.456;12.626;2023-03-21T11:21:52;15.30;64.60
13332;DHT22;6735;51.456;12.626;2023-03-21T11:24:18;15.40;64.40
13332;DHT22;6735;51.456;12.626;2023-03-21T11:26:47;15.30;64.20
13332;DHT22;6735;51.456;12.626;2023-03-21T11:29:37;15.50;64.30
13332;DHT22;6735;51.456;12.626;2023-03-21T11:37:36;16.00;63.00
13332;DHT22;6735;51.456;12.626;2023-03-21T11:40:21;16.20;62.00
13332;DHT22;6735;51.456;12.626;2023-03-21T11:42:58;16.20;62.40
13332;DHT22;6735;51.456;12.626;2023-03-21T11:45:28;16.30;62.20
13332;DHT22;6735;51.456;12.626;2023-03-21T11:47:57;16.30;62.30
13332;DHT22;6735;51.456;12.626;2023-03-21T11:50:44;16.40;62.10
13332;DHT22;6735;51.456;12.626;2023-03-21T11:53:46;16.60;60.70
13332;DHT22;6735;51.456;12.626;2023-03-21T11:58:58;17.00;60.60
13332;DHT22;6735;51.456;12.626;2023-03-21T12:04:39;17.00;59.60
13332;DHT22;6735;51.456;12.626;2023-03-21T12:10:08;17.10;57.70
13332;DHT22;6735;51.456;12.626;2023-03-21T12:12:50;17.10;57.40
13332;DHT22;6735;51.456;12.626;2023-03-21T12:15:38;17.20;58.40
13332;DHT22;6735;51.456;12.626;2023-03-21T12:18:30;17.50;56.30
13332;DHT22;6735;51.456;12.626;2023-03-21T12:21:10;17.50;56.80
13332;DHT22;6735;51.456;12.626;2023-03-21T12:24:02;17.60;56.60
13332;DHT22;6735;51.456;12.626;2023-03-21T12:26:42;17.60;56.10
13332;DHT22;6735;51.456;12.626;2023-03-21T12:29:30;17.70;57.50
13332;DHT22;6735;51.456;12.626;2023-03-21T12:34:50;17.70;56.60
13332;DHT22;6735;51.456;12.626;2023-03-21T12:37:27;17.70;55.30
13332;DHT22;6735;51.456;12.626;2023-03-21T12:40:08;17.90;56.10
13332;DHT22;6735;51.456;12.626;2023-03-21T12:42:55;17.90;55.50
13332;DHT22;6735;51.456;12.626;2023-03-21T12:45:30;18.00;55.00
13332;DHT22;6735;51.456;12.626;2023-03-21T12:48:18;17.90;55.00
13332;DHT22;6735;51.456;12.626;2023-03-21T12:50:46;17.90;55.80
13332;DHT22;6735;51.456;12.626;2023-03-21T12:53:28;17.90;55.70
13332;DHT22;6735;51.456;12.626;2023-03-21T12:55:59;18.10;54.70
13332;DHT22;6735;51.456;12.626;2023-03-21T12:58:27;18.20;53.70
13332;DHT22;6735;51.456;12.626;2023-03-21T13:00:55;18.10;55.00
13332;DHT22;6735;51.456;12.626;2023-03-21T13:03:40;18.20;54.70
13332;DHT22;6735;51.456;12.626;2023-03-21T13:06:18;18.20;53.40
13332;DHT22;6735;51.456;12.626;2023-03-21T13:08:59;18.10;54.00
13332;DHT22;6735;51.456;12.626;2023-03-21T13:11:29;18.20;53.90
13332;DHT22;6735;51.456;12.626;2023-03-21T13:14:05;18.20;54.20
13332;DHT22;6735;51.456;12.626;2023-03-21T13:16:47;18.20;53.90
13332;DHT22;6735;51.456;12.626;2023-03-21T13:22:24;18.20;53.80
13332;DHT22;6735;51.456;12.626;2023-03-21T13:24:57;18.20;53.40
13332;DHT22;6735;51.456;12.626;2023-03-21T13:29:57;17.90;54.50
13332;DHT22;6735;51.456;12.626;2023-03-21T13:32:42;17.90;54.70
13332;DHT22;6735;51.456;12.626;2023-03-21T13:35:18;18.00;54.40
13332;DHT22;6735;51.456;12.626;2023-03-21T13:38:15;18.10;54.10
13332;DHT22;6735;51.456;12.626;2023-03-21T13:40:55;18.00;53.70
13332;DHT22;6735;51.456;12.626;2023-03-21T13:51:43;18.10;53.70
13332;DHT22;6735;51.456;12.626;2023-03-21T13:54:18;17.90;53.80
13332;DHT22;6735;51.456;12.626;2023-03-21T14:04:43;17.90;53.40
13332;DHT22;6735;51.456;12.626;2023-03-21T14:07:12;17.80;54.50
13332;DHT22;6735;51.456;12.626;2023-03-21T14:09:46;17.80;54.70
13332;DHT22;6735;51.456;12.626;2023-03-21T14:12:17;17.80;54.50
13332;DHT22;6735;51.456;12.626;2023-03-21T14:14:50;17.80;54.90
13332;DHT22;6735;51.456;12.626;2023-03-21T14:17:26;17.80;55.00
13332;DHT22;6735;51.456;12.626;2023-03-21T14:19:58;17.80;55.20
13332;DHT22;6735;51.456;12.626;2023-03-21T14:22:25;17.90;55.10
13332;DHT22;6735;51.456;12.626;2023-03-21T14:25:12;17.80;54.90
13332;DHT22;6735;51.456;12.626;2023-03-21T14:27:51;17.80;54.60
13332;DHT22;6735;51.456;12.626;2023-03-21T14:30:31;17.80;54.50
13332;DHT22;6735;51.456;12.626;2023-03-21T14:33:02;17.80;54.70
13332;DHT22;6735;51.456;12.626;2023-03-21T14:35:30;17.80;54.90
13332;DHT22;6735;51.456;12.626;2023-03-21T14:38:00;17.90;55.10
13332;DHT22;6735;51.456;12.626;2023-03-21T14:40:28;17.90;54.90
13332;DHT22;6735;51.456;12.626;2023-03-21T14:42:54;17.90;54.80
13332;DHT22;6735;51.456;12.626;2023-03-21T14:45:23;17.90;55.20
13332;DHT22;6735;51.456;12.626;2023-03-21T14:50:26;18.00;55.00
13332;DHT22;6735;51.456;12.626;2023-03-21T14:52:52;18.10;54.90
13332;DHT22;6735;51.456;12.626;2023-03-21T14:55:19;18.10;54.90
13332;DHT22;6735;51.456;12.626;2023-03-21T14:57:44;18.00;55.00
13332;DHT22;6735;51.456;12.626;2023-03-21T15:00:28;17.90;55.00
13332;DHT22;6735;51.456;12.626;2023-03-21T15:02:57;17.90;55.00
13332;DHT22;6735;51.456;12.626;2023-03-21T15:05:28;17.80;55.30
13332;DHT22;6735;51.456;12.626;2023-03-21T15:08:01;17.70;55.80
13332;DHT22;6735;51.456;12.626;2023-03-21T15:10:29;17.70;55.90
13332;DHT22;6735;51.456;12.626;2023-03-21T15:13:01;17.60;56.10
13332;DHT22;6735;51.456;12.626;2023-03-21T15:15:28;17.60;56.60
13332;DHT22;6735;51.456;12.626;2023-03-21T15:17:57;17.50;56.80
13332;DHT22;6735;51.456;12.626;2023-03-21T15:20:27;17.40;56.80
13332;DHT22;6735;51.456;12.626;2023-03-21T15:23:00;17.40;57.20
13332;DHT22;6735;51.456;12.626;2023-03-21T15:25:30;17.40;57.20
13332;DHT22;6735;51.456;12.626;2023-03-21T15:27:57;17.40;57.30
13332;DHT22;6735;51.456;12.626;2023-03-21T15:30:25;17.20;57.90
13332;DHT22;6735;51.456;12.626;2023-03-21T15:32:53;17.20;57.80
13332;DHT22;6735;51.456;12.626;2023-03-21T15:35:27;17.20;58.00
13332;DHT22;6735;51.456;12.626;2023-03-21T15:37:57;17.20;58.20
13332;DHT22;6735;51.456;12.626;2023-03-21T15:40:26;17.20;58.60
13332;DHT22;6735;51.456;12.626;2023-03-21T15:43:13;17.10;58.50
13332;DHT22;6735;51.456;12.626;2023-03-21T15:45:48;17.10;58.60
13332;DHT22;6735;51.456;12.626;2023-03-21T15:48:14;17.10;58.90
13332;DHT22;6735;51.456;12.626;2023-03-21T15:51:01;17.10;58.90
13332;DHT22;6735;51.456;12.626;2023-03-21T15:53:35;17.10;58.90
13332;DHT22;6735;51.456;12.626;2023-03-21T15:56:03;17.00;59.10
13332;DHT22;6735;51.456;12.626;2023-03-21T15:58:35;17.00;59.20
13332;DHT22;6735;51.456;12.626;2023-03-21T16:01:05;17.00;59.30
13332;DHT22;6735;51.456;12.626;2023-03-21T16:03:34;17.00;59.40
13332;DHT22;6735;51.456;12.626;2023-03-21T16:06:21;17.00;59.60
13332;DHT22;6735;51.456;12.626;2023-03-21T16:08:52;16.90;60.20
13332;DHT22;6735;51.456;12.626;2023-03-21T16:11:26;16.90;60.00
13332;DHT22;6735;51.456;12.626;2023-03-21T16:13:54;16.80;60.30
13332;DHT22;6735;51.456;12.626;2023-03-21T16:16:28;16.70;60.50
13332;DHT22;6735;51.456;12.626;2023-03-21T16:18:55;16.70;61.20
13332;DHT22;6735;51.456;12.626;2023-03-21T16:21:24;16.40;61.70
13332;DHT22;6735;51.456;12.626;2023-03-21T16:23:50;16.30;62.60
13332;DHT22;6735;51.456;12.626;2023-03-21T16:26:19;16.20;62.80
13332;DHT22;6735;51.456;12.626;2023-03-21T16:28:46;16.20;63.30
13332;DHT22;6735;51.456;12.626;2023-03-21T16:31:17;16.10;63.30
13332;DHT22;6735;51.456;12.626;2023-03-21T16:33:43;16.00;63.50
13332;DHT22;6735;51.456;12.626;2023-03-21T16:36:18;15.80;63.90
13332;DHT22;6735;51.456;12.626;2023-03-21T16:38:47;15.70;64.30
13332;DHT22;6735;51.456;12.626;2023-03-21T16:41:17;15.60;64.50
13332;DHT22;6735;51.456;12.626;2023-03-21T16:43:43;15.50;65.10
13332;DHT22;6735;51.456;12.626;2023-03-21T16:46:13;15.40;65.70
13332;DHT22;6735;51.456;12.626;2023-03-21T16:48:39;15.30;65.80
13332;DHT22;6735;51.456;12.626;2023-03-21T16:51:05;15.20;66.10
13332;DHT22;6735;51.456;12.626;2023-03-21T16:53:31;15.10;66.60
13332;DHT22;6735;51.456;12.626;2023-03-21T16:55:56;15.00;67.00
13332;DHT22;6735;51.456;12.626;2023-03-21T16:58:27;14.90;67.30
13332;DHT22;6735;51.456;12.626;2023-03-21T17:00:52;14.80;67.70
13332;DHT22;6735;51.456;12.626;2023-03-21T17:03:18;14.70;67.90
13332;DHT22;6735;51.456;12.626;2023-03-21T17:05:44;14.70;68.10
13332;DHT22;6735;51.456;12.626;2023-03-21T17:08:16;14.70;68.20
13332;DHT22;6735;51.456;12.626;2023-03-21T17:10:42;14.60;68.40
13332;DHT22;6735;51.456;12.626;2023-03-21T17:13:08;14.60;68.70